createdAt,value
2022-12-29T00:01:03.083Z,100197.59
2022-12-29T00:03:30.514Z,100193.28
2022-12-29T00:05:58.749Z,100206.31
2022-12-29T00:08:40.962Z,100196.75
2022-12-29T00:11:23.257Z,100195.00
2022-12-29T00:14:09.237Z,100195.00
2022-12-29T00:16:37.337Z,100196.75
2022-12-29T00:19:05.380Z,100199.34
2022-12-29T00:21:51.356Z,100201.97
2022-12-29T00:24:28.746Z,100200.22
2022-12-29T00:27:23.233Z,100194.16
2022-12-29T00:30:09.688Z,100188.09
2022-12-29T00:32:56.035Z,100189.84
2022-12-29T00:35:40.460Z,100175.03
2022-12-29T00:38:28.800Z,100175.91
2022-12-29T00:41:14.220Z,100188.91
2022-12-29T00:44:00.011Z,100170.66
2022-12-29T00:46:28.046Z,100178.44
2022-12-29T00:49:14.368Z,100177.56
2022-12-29T00:51:41.139Z,100168.84
2022-12-29T00:54:08.814Z,100163.56
2022-12-29T00:56:36.166Z,100177.47
2022-12-29T00:59:05.194Z,100181.75
2022-12-29T01:01:32.701Z,100168.69
2022-12-29T01:04:03.786Z,100176.44
2022-12-29T01:06:32.280Z,100166.88
2022-12-29T01:09:19.156Z,100167.69
2022-12-29T01:11:46.329Z,100162.44
2022-12-29T01:14:13.230Z,100146.81
2022-12-29T01:16:40.455Z,100150.25
2022-12-29T01:19:07.382Z,100145.88
2022-12-29T01:21:34.684Z,100139.75
2022-12-29T01:24:01.552Z,100127.59
2022-12-29T01:26:28.452Z,100121.50
2022-12-29T01:28:55.435Z,100115.44
2022-12-29T01:31:23.678Z,100123.22
2022-12-29T01:33:50.674Z,100121.47
2022-12-29T01:36:19.829Z,100124.97
2022-12-29T01:38:46.885Z,100123.22
2022-12-29T01:41:16.117Z,100128.34
2022-12-29T01:43:50.745Z,100137.91
2022-12-29T01:46:31.821Z,100133.53
2022-12-29T01:49:08.726Z,100128.31
2022-12-29T01:51:49.735Z,100124.00
2022-12-29T01:54:32.367Z,100117.03
2022-12-29T01:57:03.722Z,100117.03
2022-12-29T01:59:36.295Z,100126.56
2022-12-29T02:02:03.653Z,100110.91
2022-12-29T02:04:34.235Z,100106.50
2022-12-29T02:07:05.747Z,100104.75
2022-12-29T02:09:32.758Z,100104.69
2022-12-29T02:12:01.039Z,100103.81
2022-12-29T02:14:28.075Z,100105.53
2022-12-29T02:17:10.061Z,100106.41
2022-12-29T02:20:01.656Z,100098.66
2022-12-29T02:22:51.260Z,100090.94
2022-12-29T02:25:43.165Z,100089.28
2022-12-29T02:28:31.945Z,100093.72
2022-12-29T02:31:50.238Z,100088.59
2022-12-29T02:34:27.021Z,100077.31
2022-12-29T02:37:05.745Z,100072.19
2022-12-29T02:40:00.644Z,100072.19
2022-12-29T02:42:45.444Z,100062.66
2022-12-29T02:45:28.364Z,100057.47
2022-12-29T02:48:10.896Z,100052.25
2022-12-29T02:50:50.116Z,100053.09
2022-12-29T02:53:40.556Z,100053.13
2022-12-29T02:56:07.663Z,100066.94
2022-12-29T02:58:34.615Z,100067.78
2022-12-29T03:01:22.892Z,100066.00
2022-12-29T03:04:15.063Z,100069.44
2022-12-29T03:07:19.544Z,100064.22
2022-12-29T03:09:56.447Z,100052.06
2022-12-29T03:13:03.703Z,100052.88
2022-12-29T03:15:59.490Z,100051.16
2022-12-29T03:18:42.359Z,100036.38
2022-12-29T03:21:19.063Z,100038.09
2022-12-29T03:23:50.533Z,100045.03
2022-12-29T03:26:19.787Z,100045.03
2022-12-29T03:28:54.362Z,100041.59
2022-12-29T03:31:26.910Z,100040.75
2022-12-29T03:33:58.122Z,100043.34
2022-12-29T03:36:33.940Z,100046.84
2022-12-29T03:39:07.459Z,100047.66
2022-12-29T03:41:35.717Z,100039.88
2022-12-29T03:44:06.905Z,100048.53
2022-12-29T03:46:34.284Z,100045.03
2022-12-29T03:49:01.370Z,100037.25
2022-12-29T03:51:28.422Z,100043.22
2022-12-29T03:53:55.773Z,100035.41
2022-12-29T03:56:23.052Z,100031.94
2022-12-29T03:58:51.296Z,100035.38
2022-12-29T04:01:29.309Z,100024.94
2022-12-29T04:03:56.521Z,100024.94
2022-12-29T04:06:24.730Z,100037.06
2022-12-29T04:09:00.994Z,100040.50
2022-12-29T04:11:33.197Z,100031.78
2022-12-29T04:14:02.079Z,100028.31
2022-12-29T04:16:31.397Z,100035.25
2022-12-29T04:18:58.412Z,100034.38
2022-12-29T04:21:25.884Z,100035.22
2022-12-29T04:23:53.028Z,100032.63
2022-12-29T04:26:20.175Z,100033.47
2022-12-29T04:29:09.808Z,100033.41
2022-12-29T04:31:45.683Z,100042.97
2022-12-29T04:34:12.875Z,100041.22
2022-12-29T04:36:40.941Z,100031.66
2022-12-29T04:39:08.699Z,100027.31
2022-12-29T04:41:36.877Z,100035.09
2022-12-29T04:44:05.678Z,100035.06
2022-12-29T04:47:03.102Z,100041.13
2022-12-29T04:49:44.114Z,100035.91
2022-12-29T04:52:31.756Z,100032.38
2022-12-29T04:54:59.212Z,100032.41
2022-12-29T04:57:26.882Z,100030.66
2022-12-29T04:59:57.376Z,100024.63
2022-12-29T05:02:25.614Z,100017.69
2022-12-29T05:04:53.681Z,100021.16
2022-12-29T05:07:21.027Z,100013.41
2022-12-29T05:09:50.038Z,100008.25
2022-12-29T05:12:17.164Z,100014.38
2022-12-29T05:14:59.658Z,100017.91
2022-12-29T05:17:27.727Z,100011.97
2022-12-29T05:19:54.831Z,100010.28
2022-12-29T05:22:22.724Z,100002.50
2022-12-29T05:24:50.511Z,100014.69
2022-12-29T05:27:18.074Z,100005.19
2022-12-29T05:30:06.457Z,100019.97
2022-12-29T05:32:33.713Z,100000.09
2022-12-29T05:35:00.904Z,100000.09
2022-12-29T05:37:29.169Z,100004.44
2022-12-29T05:39:56.389Z,99997.56
2022-12-29T05:42:23.788Z,99998.47
2022-12-29T05:45:08.218Z,99997.59
2022-12-29T05:50:07.865Z,100007.13
2022-12-29T05:52:55.777Z,100014.09
2022-12-29T05:55:29.098Z,100014.09
2022-12-29T05:58:00.689Z,100026.19
2022-12-29T06:00:45.302Z,100027.97
2022-12-29T06:03:17.135Z,100025.38
2022-12-29T06:05:47.221Z,100032.31
2022-12-29T06:08:16.665Z,100031.50
2022-12-29T06:10:44.093Z,100025.47
2022-12-29T06:13:11.503Z,100024.59
2022-12-29T06:15:42.443Z,100022.88
2022-12-29T06:18:19.335Z,100019.44
2022-12-29T06:20:53.881Z,100025.53
2022-12-29T06:23:24.763Z,100031.59
2022-12-29T06:25:52.860Z,100032.47
2022-12-29T06:28:22.724Z,100022.97
2022-12-29T06:30:53.541Z,100028.22
2022-12-29T06:33:22.157Z,100033.41
2022-12-29T06:35:50.163Z,100039.50
2022-12-29T06:38:18.284Z,100047.31
2022-12-29T06:40:46.727Z,100040.38
2022-12-29T06:43:23.492Z,100043.81
2022-12-29T06:46:02.616Z,100041.22
2022-12-29T06:48:30.602Z,100044.69
2022-12-29T06:50:58.389Z,100037.72
2022-12-29T06:53:27.125Z,100048.13
2022-12-29T06:56:02.701Z,100049.00
2022-12-29T06:58:30.975Z,100037.75
2022-12-29T07:00:59.329Z,100032.53
2022-12-29T07:03:26.919Z,100033.41
2022-12-29T07:05:55.556Z,100020.41
2022-12-29T07:08:22.965Z,100016.94
2022-12-29T07:10:51.029Z,100019.59
2022-12-29T07:13:18.892Z,100023.03
2022-12-29T07:15:47.523Z,100014.31
2022-12-29T07:18:15.691Z,100018.63
2022-12-29T07:20:43.653Z,100018.59
2022-12-29T07:23:11.062Z,100011.59
2022-12-29T07:25:38.356Z,100011.56
2022-12-29T07:28:05.839Z,100008.00
2022-12-29T07:30:33.280Z,100007.06
2022-12-29T07:33:01.613Z,100001.72
2022-12-29T07:35:29.098Z,100006.06
2022-12-29T07:37:56.651Z,100007.75
2022-12-29T07:40:23.996Z,100017.22
2022-12-29T07:42:51.334Z,100021.63
2022-12-29T07:45:27.078Z,100025.13
2022-12-29T07:48:11.482Z,100018.16
2022-12-29T07:50:39.593Z,100015.50
2022-12-29T07:53:07.457Z,100013.00
2022-12-29T07:55:35.861Z,100018.19
2022-12-29T07:58:03.353Z,100008.69
2022-12-29T08:00:30.953Z,100013.00
2022-12-29T08:03:00.067Z,100006.88
2022-12-29T08:05:27.497Z,100008.66
2022-12-29T08:07:54.955Z,100006.06
2022-12-29T08:10:22.265Z,100013.03
2022-12-29T08:12:50.104Z,100027.81
2022-12-29T08:15:17.493Z,100040.81
2022-12-29T08:17:45.023Z,100032.00
2022-12-29T08:20:12.562Z,100034.53
2022-12-29T08:22:39.918Z,100028.38
2022-12-29T08:25:07.679Z,100030.03
2022-12-29T08:27:34.961Z,100020.41
2022-12-29T08:30:02.474Z,100018.47
2022-12-29T08:32:30.076Z,100010.50
2022-12-29T08:34:57.819Z,100008.66
2022-12-29T08:37:30.858Z,100005.91
2022-12-29T08:39:59.856Z,100000.66
2022-12-29T08:42:32.360Z,100009.47
2022-12-29T08:45:01.384Z,100000.94
2022-12-29T08:47:29.519Z,100006.19
2022-12-29T08:49:56.709Z,100000.19
2022-12-29T08:52:24.192Z,100000.31
2022-12-29T08:54:51.433Z,99996.91
2022-12-29T08:57:18.703Z,100002.13
2022-12-29T08:59:58.228Z,99994.34
2022-12-29T09:02:25.466Z,99991.63
2022-12-29T09:04:53.171Z,99989.88
2022-12-29T09:07:20.388Z,99984.56
2022-12-29T09:09:47.426Z,99983.75
2022-12-29T09:12:14.536Z,99985.53
2022-12-29T09:14:41.628Z,99978.63
2022-12-29T09:17:27.600Z,99979.53
2022-12-29T09:19:54.907Z,99986.56
2022-12-29T09:22:22.337Z,99994.47
2022-12-29T09:24:49.550Z,99988.41
2022-12-29T09:27:16.779Z,99983.16
2022-12-29T09:29:44.402Z,99983.13
2022-12-29T09:32:17.112Z,99986.56
2022-12-29T09:34:45.805Z,99976.09
2022-12-29T09:37:13.164Z,99960.34
2022-12-29T09:39:40.355Z,99949.81
2022-12-29T09:42:13.668Z,99945.41
2022-12-29T09:44:53.016Z,99929.63
2022-12-29T09:47:22.647Z,99933.88
2022-12-29T09:50:00.844Z,99932.91
2022-12-29T09:52:33.267Z,99928.41
2022-12-29T09:55:10.440Z,99924.81
2022-12-29T09:57:48.845Z,99925.59
2022-12-29T10:00:22.943Z,99921.31
2022-12-29T10:02:53.834Z,99912.47
2022-12-29T10:05:29.091Z,99916.69
2022-12-29T10:08:15.797Z,99915.53
2022-12-29T10:11:22.197Z,99906.69
2022-12-29T10:14:02.841Z,99900.63
2022-12-29T10:16:40.562Z,99904.03
2022-12-29T10:19:35.762Z,99898.63
2022-12-29T10:22:18.804Z,99901.25
2022-12-29T10:24:49.906Z,99910.19
2022-12-29T10:27:18.317Z,99898.84
2022-12-29T10:29:52.720Z,99894.69
2022-12-29T10:32:25.704Z,99890.94
2022-12-29T10:34:59.610Z,99880.78
2022-12-29T10:37:40.469Z,99876.34
2022-12-29T10:41:03.455Z,99885.13
2022-12-29T10:43:35.229Z,99869.63
2022-12-29T10:46:10.850Z,99856.50
2022-12-29T10:48:38.444Z,99869.63
2022-12-29T10:51:12.321Z,99872.88
2022-12-29T10:53:42.661Z,99878.22
2022-12-29T10:56:35.969Z,99887.72
2022-12-29T10:59:20.808Z,99876.34
2022-12-29T11:02:06.542Z,99873.75
2022-12-29T11:05:05.738Z,99880.69
2022-12-29T11:07:33.154Z,99874.66
2022-12-29T11:10:41.081Z,99874.78
2022-12-29T11:13:18.726Z,99880.94
2022-12-29T11:15:46.868Z,99884.63
2022-12-29T11:18:39.577Z,99881.97
2022-12-29T11:21:24.960Z,99892.47
2022-12-29T11:24:06.652Z,99892.50
2022-12-29T11:26:35.279Z,99894.31
2022-12-29T11:29:21.228Z,99893.50
2022-12-29T11:32:00.445Z,99897.16
2022-12-29T11:34:36.085Z,99892.84
2022-12-29T11:37:40.250Z,99903.41
2022-12-29T11:40:19.306Z,99910.47
2022-12-29T11:42:54.182Z,99900.94
2022-12-29T11:45:24.249Z,99901.81
2022-12-29T11:48:02.155Z,99900.88
2022-12-29T11:50:33.382Z,99900.88
2022-12-29T11:53:04.910Z,99899.06
2022-12-29T11:55:33.141Z,99905.16
2022-12-29T11:58:03.543Z,99903.41
2022-12-29T12:00:36.124Z,99907.72
2022-12-29T12:03:25.954Z,99904.25
2022-12-29T12:05:59.137Z,99907.72
2022-12-29T12:09:04.039Z,99907.72
2022-12-29T12:11:39.133Z,99904.25
2022-12-29T12:14:53.698Z,99900.75
2022-12-29T12:17:39.638Z,99891.13
2022-12-29T12:20:29.005Z,99874.50
2022-12-29T12:23:37.788Z,99867.56
2022-12-29T12:26:19.191Z,99868.44
2022-12-29T12:29:02.591Z,99855.28
2022-12-29T12:31:30.008Z,99850.09
2022-12-29T12:34:05.958Z,99845.69
2022-12-29T12:36:48.725Z,99844.84
2022-12-29T12:39:43.036Z,99857.06
2022-12-29T12:42:36.390Z,99855.19
2022-12-29T12:45:40.746Z,99861.28
2022-12-29T12:48:49.079Z,99858.59
2022-12-29T12:51:25.099Z,99848.91
2022-12-29T12:54:07.417Z,99862.22
2022-12-29T12:56:46.353Z,99864.88
2022-12-29T12:59:19.508Z,99871.06
2022-12-29T13:02:10.041Z,99888.63
2022-12-29T13:05:01.998Z,99892.16
2022-12-29T13:07:35.817Z,99890.41
2022-12-29T13:10:30.308Z,99884.34
2022-12-29T13:13:15.931Z,99879.16
2022-12-29T13:15:53.425Z,99880.00
2022-12-29T13:18:40.047Z,99869.53
2022-12-29T13:21:12.639Z,99867.72
2022-12-29T13:23:58.492Z,99874.78
2022-12-29T13:26:39.719Z,99880.97
2022-12-29T13:29:32.664Z,99881.88
2022-12-29T13:32:31.999Z,99880.16
2022-12-29T13:35:18.060Z,99884.56
2022-12-29T13:38:00.834Z,99882.78
2022-12-29T13:40:35.371Z,99882.97
2022-12-29T13:43:04.197Z,99875.13
2022-12-29T13:45:34.150Z,99874.31
2022-12-29T13:48:16.667Z,99879.53
2022-12-29T13:50:56.695Z,99877.75
2022-12-29T13:53:31.798Z,99875.97
2022-12-29T13:56:21.693Z,99868.00
2022-12-29T13:59:14.713Z,99867.13
2022-12-29T14:01:49.347Z,99859.22
2022-12-29T14:04:25.480Z,99862.78
2022-12-29T14:07:03.561Z,99861.84
2022-12-29T14:09:54.034Z,99856.59
2022-12-29T14:12:34.497Z,99861.88
2022-12-29T14:15:21.376Z,99862.00
2022-12-29T14:18:16.476Z,99853.41
2022-12-29T14:20:58.969Z,99854.34
2022-12-29T14:23:45.532Z,99850.97
2022-12-29T14:26:19.202Z,99856.19
2022-12-29T14:28:51.327Z,99869.28
2022-12-29T14:31:18.498Z,99865.03
2022-12-29T14:34:08.406Z,99870.28
2022-12-29T14:36:41.584Z,99871.22
2022-12-29T14:39:39.335Z,99865.97
2022-12-29T14:42:07.189Z,99861.66
2022-12-29T14:44:36.001Z,99858.22
2022-12-29T14:47:08.739Z,99864.34
2022-12-29T14:49:45.576Z,99859.19
2022-12-29T14:52:24.347Z,99855.75
2022-12-29T14:55:01.662Z,99874.94
2022-12-29T14:57:31.381Z,99876.69
2022-12-29T15:00:06.424Z,99881.91
2022-12-29T15:02:40.149Z,99871.53
2022-12-29T15:05:42.065Z,99866.31
2022-12-29T15:08:11.946Z,99861.97
2022-12-29T15:10:46.618Z,99864.56
2022-12-29T15:13:22.594Z,99863.69
2022-12-29T15:15:50.101Z,99867.19
2022-12-29T15:18:31.379Z,99870.69
2022-12-29T15:21:02.002Z,99879.41
2022-12-29T15:23:32.357Z,99869.84
2022-12-29T15:26:23.865Z,99858.56
2022-12-29T15:28:53.824Z,99853.38
2022-12-29T15:31:27.982Z,99851.66
2022-12-29T15:34:11.648Z,99861.28
2022-12-29T15:36:40.528Z,99861.28
2022-12-29T15:39:43.165Z,99864.75
2022-12-29T15:42:51.358Z,99866.53
2022-12-29T15:45:18.739Z,99865.69
2022-12-29T15:47:49.921Z,99863.09
2022-12-29T15:50:21.828Z,99864.78
2022-12-29T15:52:49.305Z,99859.56
2022-12-29T15:55:35.657Z,99860.44
2022-12-29T15:58:19.010Z,99859.56
2022-12-29T16:00:51.885Z,99861.34
2022-12-29T16:03:19.417Z,99863.09
2022-12-29T16:05:56.005Z,99849.16
2022-12-29T16:08:38.114Z,99858.75
2022-12-29T16:11:31.732Z,99854.44
2022-12-29T16:13:59.229Z,99854.44
2022-12-29T16:16:36.447Z,99850.09
2022-12-29T16:19:13.507Z,99844.03
2022-12-29T16:21:42.923Z,99849.28
2022-12-29T16:24:17.516Z,99848.41
2022-12-29T16:27:00.645Z,99850.16
2022-12-29T16:29:31.029Z,99857.13
2022-12-29T16:32:04.095Z,99851.03
2022-12-29T16:34:31.391Z,99849.28
2022-12-29T16:37:01.051Z,99838.03
2022-12-29T16:39:30.510Z,99840.63
2022-12-29T16:41:58.768Z,99838.88
2022-12-29T16:44:28.697Z,99838.91
2022-12-29T16:47:11.204Z,99835.44
2022-12-29T16:49:41.393Z,99844.13
2022-12-29T16:52:34.275Z,99836.31
2022-12-29T16:55:02.765Z,99838.94
2022-12-29T16:57:37.579Z,99838.03
2022-12-29T17:00:09.238Z,99841.53
2022-12-29T17:02:46.187Z,99842.41
2022-12-29T17:05:18.260Z,99848.50
2022-12-29T17:07:46.477Z,99838.09
2022-12-29T17:10:17.221Z,99836.34
2022-12-29T17:12:46.990Z,99835.50
2022-12-29T17:15:27.624Z,99835.50
2022-12-29T17:17:57.137Z,99826.81
2022-12-29T17:20:26.948Z,99825.94
2022-12-29T17:22:55.215Z,99826.81
2022-12-29T17:25:35.484Z,99825.97
2022-12-29T17:28:05.328Z,99826.81
2022-12-29T17:30:35.171Z,99825.97
2022-12-29T17:33:09.130Z,99820.72
2022-12-29T17:35:37.467Z,99815.50
2022-12-29T17:38:19.455Z,99821.63
2022-12-29T17:40:46.856Z,99821.63
2022-12-29T17:43:16.489Z,99820.72
2022-12-29T17:45:44.979Z,99827.66
2022-12-29T17:48:14.582Z,99820.72
2022-12-29T17:50:42.522Z,99817.19
2022-12-29T17:53:20.902Z,99811.13
2022-12-29T17:55:47.889Z,99820.69
2022-12-29T17:58:23.638Z,99818.94
2022-12-29T18:00:53.551Z,99810.22
2022-12-29T18:03:31.956Z,99816.31
2022-12-29T18:06:00.120Z,99814.53
2022-12-29T18:08:29.677Z,99820.56
2022-12-29T18:10:57.264Z,99820.47
2022-12-29T18:13:40.417Z,99809.13
2022-12-29T18:16:13.007Z,99804.72
2022-12-29T18:18:40.234Z,99806.38
2022-12-29T18:21:12.046Z,99803.72
2022-12-29T18:23:40.264Z,99801.94
2022-12-29T18:26:23.956Z,99802.81
2022-12-29T18:28:55.979Z,99813.22
2022-12-29T18:31:25.391Z,99814.16
2022-12-29T18:33:54.701Z,99809.00
2022-12-29T18:36:22.450Z,99808.19
2022-12-29T18:38:51.159Z,99812.56
2022-12-29T18:41:21.137Z,99804.78
2022-12-29T18:43:48.730Z,99812.66
2022-12-29T18:46:22.320Z,99810.03
2022-12-29T18:48:51.135Z,99812.66
2022-12-29T18:51:21.662Z,99814.44
2022-12-29T18:53:49.641Z,99807.50
2022-12-29T18:56:16.755Z,99812.75
2022-12-29T18:58:44.220Z,99808.41
2022-12-29T19:01:22.588Z,99807.56
2022-12-29T19:03:50.163Z,99804.97
2022-12-29T19:06:17.686Z,99810.19
2022-12-29T19:08:44.866Z,99813.66
2022-12-29T19:11:12.006Z,99825.84
2022-12-29T19:13:40.554Z,99820.66
2022-12-29T19:16:13.565Z,99825.00
2022-12-29T19:18:44.072Z,99819.78
2022-12-29T19:21:12.422Z,99826.75
2022-12-29T19:23:40.561Z,99814.56
2022-12-29T19:26:08.032Z,99813.72
2022-12-29T19:28:34.988Z,99807.59
2022-12-29T19:31:03.031Z,99805.88
2022-12-29T19:33:30.189Z,99805.88
2022-12-29T19:36:02.348Z,99802.34
2022-12-29T19:38:29.756Z,99801.47
2022-12-29T19:40:57.178Z,99804.09
2022-12-29T19:43:24.338Z,99801.44
2022-12-29T19:45:52.686Z,99802.31
2022-12-29T19:48:20.932Z,99799.69
2022-12-29T19:50:48.367Z,99796.19
2022-12-29T19:53:16.314Z,99799.63
2022-12-29T19:55:47.305Z,99794.38
2022-12-29T19:58:15.043Z,99790.94
2022-12-29T20:00:43.966Z,99792.66
2022-12-29T20:03:11.947Z,99791.72
2022-12-29T20:05:40.479Z,99787.34
2022-12-29T20:08:07.789Z,99786.44
2022-12-29T20:10:35.087Z,99787.38
2022-12-29T20:13:04.705Z,99789.09
2022-12-29T20:15:32.757Z,99789.06
2022-12-29T20:18:15.597Z,99790.84
2022-12-29T20:20:43.347Z,99796.91
2022-12-29T20:23:11.198Z,99801.25
2022-12-29T20:25:47.282Z,99808.19
2022-12-29T20:28:16.207Z,99796.06
2022-12-29T20:30:44.261Z,99796.94
2022-12-29T20:33:11.549Z,99795.19
2022-12-29T20:35:38.810Z,99789.13
2022-12-29T20:38:06.105Z,99790.88
2022-12-29T20:40:33.553Z,99785.69
2022-12-29T20:43:00.807Z,99785.66
2022-12-29T20:45:28.262Z,99789.97
2022-12-29T20:47:55.861Z,99783.06
2022-12-29T20:50:23.302Z,99792.56
2022-12-29T20:52:50.629Z,99787.38
2022-12-29T20:55:17.915Z,99782.16
2022-12-29T20:58:21.961Z,99786.50
2022-12-29T21:00:33.783Z,99778.69
2022-12-29T21:03:01.736Z,99789.09
2022-12-29T21:05:29.792Z,99779.50
2022-12-29T21:07:59.906Z,99770.81
2022-12-29T21:10:27.111Z,99777.81
2022-12-29T21:12:54.369Z,99781.25
2022-12-29T21:15:21.591Z,99776.03
2022-12-29T21:17:49.124Z,99782.09
2022-12-29T21:20:20.437Z,99769.03
2022-12-29T21:22:48.602Z,99769.03
2022-12-29T21:25:16.098Z,99773.38
2022-12-29T21:27:44.380Z,99775.13
2022-12-29T21:30:12.694Z,99781.25
2022-12-29T21:32:41.392Z,99773.41
2022-12-29T21:35:09.933Z,99770.78
2022-12-29T21:37:37.678Z,99776.00
2022-12-29T21:40:05.829Z,99771.66
2022-12-29T21:42:33.090Z,99778.66
2022-12-29T21:45:21.078Z,99768.28
2022-12-29T21:48:07.761Z,99773.53
2022-12-29T21:51:00.388Z,99773.63
2022-12-29T21:53:38.848Z,99771.06
2022-12-29T21:56:18.559Z,99765.03
2022-12-29T21:59:07.329Z,99767.66
2022-12-29T22:01:55.808Z,99777.22
2022-12-29T22:04:43.229Z,99772.03
2022-12-29T22:07:30.712Z,99768.59
2022-12-29T22:10:16.500Z,99757.34
2022-12-29T22:13:03.208Z,99766.94
2022-12-29T22:15:33.376Z,99766.94
2022-12-29T22:18:01.727Z,99766.94
2022-12-29T22:20:31.536Z,99756.53
2022-12-29T22:22:58.920Z,99758.28
2022-12-29T22:25:26.074Z,99763.50
2022-12-29T22:27:58.930Z,99758.28
2022-12-29T22:30:28.085Z,99760.03
2022-12-29T22:32:56.807Z,99766.13
2022-12-29T22:35:23.931Z,99760.03
2022-12-29T22:37:50.852Z,99759.16
2022-12-29T22:40:17.872Z,99753.09
2022-12-29T22:42:45.152Z,99757.44
2022-12-29T22:45:12.635Z,99753.09
2022-12-29T22:47:39.994Z,99753.94
2022-12-29T22:50:07.279Z,99756.59
2022-12-29T22:52:34.459Z,99754.84
2022-12-29T22:55:06.526Z,99762.63
2022-12-29T22:57:34.429Z,99766.97
2022-12-29T23:00:01.650Z,99760.03
2022-12-29T23:02:28.871Z,99761.75
2022-12-29T23:05:04.843Z,99759.16
2022-12-29T23:07:36.474Z,99759.16
2022-12-29T23:10:05.165Z,99755.69
2022-12-29T23:12:32.693Z,99748.75
2022-12-29T23:14:59.741Z,99752.22
2022-12-29T23:17:26.718Z,99748.75
2022-12-29T23:19:53.824Z,99747.88
2022-12-29T23:22:21.042Z,99748.75
2022-12-29T23:24:48.036Z,99749.63
2022-12-29T23:27:15.072Z,99753.06
2022-12-29T23:29:42.087Z,99756.50
2022-12-29T23:32:09.325Z,99762.59
2022-12-29T23:34:36.158Z,99762.56
2022-12-29T23:37:03.154Z,99757.38
2022-12-29T23:39:30.188Z,99753.91
2022-12-29T23:41:57.962Z,99755.63
2022-12-29T23:44:24.912Z,99762.56
2022-12-29T23:46:52.233Z,99758.22
2022-12-29T23:49:19.497Z,99759.94
2022-12-29T23:51:46.497Z,99760.84
2022-12-29T23:54:13.583Z,99762.56
2022-12-29T23:56:40.415Z,99762.56
2022-12-29T23:59:08.647Z,99759.09
